Time;durP1;ratioP1;P1;durP2;ratioP2;P2;SDS_P1;SDS_P2;PMS_P1;PMS_P2;Temp;Humidity;BMP_temperature;BMP_pressure;BME280_temperature;BME280_humidity;BME280_pressure;Samples;Min_cycle;Max_cycle;Signal;HPM_P1;HPM_P2
2022/05/21 00:00:35;;;;;;;6.27;4.57;;;18.20;99.90;;;;;;4930943;29;20523;-80
2022/05/21 00:03:01;;;;;;;5.60;4.10;;;18.20;99.90;;;;;;4930604;29;20445;-83
2022/05/21 00:05:29;;;;;;;6.27;4.03;;;18.20;99.90;;;;;;4928355;29;20440;-82
2022/05/21 00:07:55;;;;;;;10.00;4.07;;;18.00;99.90;;;;;;4938810;28;21020;-83
2022/05/21 00:10:25;;;;;;;6.43;3.80;;;17.90;99.90;;;;;;4930262;29;20461;-82
2022/05/21 00:12:51;;;;;;;7.53;4.67;;;17.80;99.90;;;;;;4930565;29;20201;-81
2022/05/21 00:15:18;;;;;;;7.47;4.37;;;17.80;99.90;;;;;;4930605;29;20467;-81
2022/05/21 00:17:45;;;;;;;10.73;4.40;;;17.90;99.90;;;;;;4934779;29;20444;-82
2022/05/21 00:22:56;;;;;;;5.20;3.57;;;17.70;99.90;;;;;;4936493;29;20444;-82
2022/05/21 00:25:22;;;;;;;6.67;4.27;;;17.90;99.90;;;;;;4932121;29;20902;-82
2022/05/21 00:27:48;;;;;;;6.43;4.00;;;17.50;99.90;;;;;;4933019;29;20597;-81
2022/05/21 00:30:13;;;;;;;5.50;4.60;;;17.50;99.90;;;;;;4938357;29;20560;-81
2022/05/21 00:32:40;;;;;;;4.67;4.17;;;17.40;99.90;;;;;;4934543;29;20189;-81
2022/05/21 00:35:07;;;;;;;6.37;3.63;;;21.50;99.90;;;;;;4934564;29;20669;-82
2022/05/21 00:37:32;;;;;;;4.93;4.43;;;17.40;99.90;;;;;;4936134;29;20452;-83
2022/05/21 00:39:58;;;;;;;5.67;4.80;;;17.20;99.90;;;;;;4935835;29;21126;-82
2022/05/21 00:42:23;;;;;;;7.77;5.73;;;17.20;99.90;;;;;;4934240;29;20657;-84
2022/05/21 00:44:49;;;;;;;12.67;5.70;;;17.10;99.90;;;;;;4936451;29;20244;-84
2022/05/21 00:47:14;;;;;;;8.60;5.80;;;17.10;99.90;;;;;;4935906;29;20240;-82
2022/05/21 00:49:40;;;;;;;8.43;5.73;;;17.10;99.90;;;;;;4934558;29;20216;-84
2022/05/21 00:52:12;;;;;;;6.23;5.20;;;17.10;99.90;;;;;;4935069;29;20181;-83
2022/05/21 00:54:41;;;;;;;9.23;5.30;;;17.80;99.90;;;;;;4935707;29;20273;-83
2022/05/21 00:57:15;;;;;;;7.17;5.63;;;17.20;99.90;;;;;;4934672;29;20468;-85
2022/05/21 00:59:48;;;;;;;6.00;5.40;;;17.10;99.90;;;;;;4950220;28;20850;-84
2022/05/21 01:02:53;;;;;;;7.47;5.70;;;17.10;99.90;;;;;;4934183;29;20429;-84
2022/05/21 01:05:22;;;;;;;6.60;5.90;;;16.90;99.90;;;;;;4895284;29;21281;-84
2022/05/21 01:07:50;;;;;;;6.47;5.47;;;16.80;99.90;;;;;;4929957;29;20448;-83
2022/05/21 01:10:20;;;;;;;7.97;5.87;;;16.80;99.90;;;;;;4926448;29;20461;-84
2022/05/21 01:12:49;;;;;;;6.30;4.87;;;16.90;99.90;;;;;;4948500;28;20436;-84
2022/05/21 01:15:21;;;;;;;9.80;5.60;;;16.90;99.90;;;;;;4945559;28;20816;-82
2022/05/21 01:17:46;;;;;;;5.70;5.10;;;16.70;99.90;;;;;;4934495;29;20524;-84
2022/05/21 01:20:16;;;;;;;6.60;5.03;;;16.70;99.90;;;;;;4932967;29;20544;-84
2022/05/21 01:22:46;;;;;;;6.13;4.13;;;16.70;99.90;;;;;;4941752;28;21104;-83
2022/05/21 01:25:14;;;;;;;8.93;4.63;;;16.50;99.90;;;;;;4934333;29;20528;-85
2022/05/21 01:27:40;;;;;;;5.17;4.03;;;16.30;99.90;;;;;;4921491;29;20425;-85
2022/05/21 01:30:09;;;;;;;4.40;3.87;;;16.40;99.90;;;;;;4932608;29;20496;-85
2022/05/21 01:32:35;;;;;;;4.17;3.77;;;16.30;99.90;;;;;;4934349;29;20437;-84
2022/05/21 01:35:01;;;;;;;5.40;4.90;;;16.90;99.90;;;;;;4931206;29;20452;-84
2022/05/21 01:37:26;;;;;;;4.23;3.83;;;16.20;99.90;;;;;;4935597;29;20213;-85
2022/05/21 01:39:52;;;;;;;5.17;3.40;;;16.40;99.90;;;;;;4932618;29;20244;-85
2022/05/21 01:42:18;;;;;;;6.40;3.47;;;;;;;;;;4933129;29;20213;-85
2022/05/21 01:44:46;;;;;;;8.03;4.10;;;16.80;99.90;;;;;;4933817;29;20189;-84
2022/05/21 01:47:14;;;;;;;5.80;3.50;;;16.60;99.90;;;;;;4932972;29;20440;-85
2022/05/21 01:49:41;;;;;;;8.93;4.10;;;17.10;99.90;;;;;;4933917;29;20985;-85
2022/05/21 01:52:09;;;;;;;3.07;2.83;;;18.20;99.90;;;;;;4935405;29;20445;-85
2022/05/21 01:54:35;;;;;;;7.50;3.37;;;17.20;99.90;;;;;;4943219;28;20531;-85
2022/05/21 01:57:01;;;;;;;6.13;3.17;;;17.40;99.90;;;;;;4935046;29;20452;-84
2022/05/21 01:59:27;;;;;;;3.80;3.40;;;17.30;99.90;;;;;;4928524;29;20470;-84
2022/05/21 02:01:53;;;;;;;4.50;3.30;;;17.20;99.90;;;;;;4931940;29;20869;-83
2022/05/21 02:04:19;;;;;;;3.37;2.90;;;17.00;99.90;;;;;;4947049;28;21020;-84
2022/05/21 02:06:45;;;;;;;3.77;3.33;;;16.90;99.90;;;;;;4933610;29;20436;-82
2022/05/21 02:09:11;;;;;;;3.83;3.17;;;16.80;99.90;;;;;;4921097;29;20476;-82
2022/05/21 02:11:38;;;;;;;8.17;3.03;;;16.60;99.90;;;;;;4930178;29;20678;-82
2022/05/21 02:14:04;;;;;;;5.40;3.47;;;16.60;99.90;;;;;;4933305;29;20457;-82
2022/05/21 02:16:32;;;;;;;3.87;2.67;;;17.00;99.90;;;;;;4947760;28;20436;-83
2022/05/21 02:19:01;;;;;;;4.60;3.37;;;16.90;99.90;;;;;;4931230;29;20452;-83
2022/05/21 02:21:26;;;;;;;4.20;3.00;;;16.70;99.90;;;;;;4929815;29;20436;-84
2022/05/21 02:23:51;;;;;;;7.13;3.60;;;16.30;99.90;;;;;;4934017;29;20523;-85
2022/05/21 02:26:17;;;;;;;3.43;3.13;;;16.10;99.90;;;;;;4929077;29;20203;-85
2022/05/21 02:28:43;;;;;;;4.70;3.73;;;15.90;99.90;;;;;;4933117;29;20197;-85
2022/05/21 02:31:08;;;;;;;5.93;3.53;;;16.20;99.90;;;;;;4937794;29;20201;-86
2022/05/21 02:33:34;;;;;;;3.67;3.37;;;;;;;;;;4931341;29;20996;-87
2022/05/21 02:36:00;;;;;;;5.60;3.53;;;;;;;;;;4934378;29;20582;-86
2022/05/21 02:41:12;;;;;;;9.57;3.87;;;15.60;99.90;;;;;;4936021;29;20452;-84
2022/05/21 02:43:39;;;;;;;6.13;3.63;;;;;;;;;;4934968;29;20449;-84
2022/05/21 02:46:04;;;;;;;3.20;2.77;;;15.40;99.90;;;;;;4942299;28;20437;-83
2022/05/21 02:48:31;;;;;;;6.47;3.80;;;15.30;99.90;;;;;;4939482;28;20544;-82
2022/05/21 02:50:57;;;;;;;4.17;3.50;;;15.10;99.90;;;;;;4933931;29;20461;-85
2022/05/21 02:53:22;;;;;;;8.33;4.80;;;15.00;99.90;;;;;;4932207;29;20448;-85
2022/05/21 02:55:50;;;;;;;11.03;4.67;;;14.80;99.90;;;;;;4932050;29;20212;-85
2022/05/21 02:58:16;;;;;;;6.50;3.83;;;14.60;99.90;;;;;;4929762;29;20193;-85
2022/05/21 03:00:43;;;;;;;5.77;3.53;;;14.50;99.90;;;;;;4935070;29;20193;-84
2022/05/21 03:03:09;;;;;;;4.75;3.65;;;14.50;99.90;;;;;;4933032;29;20448;-84
2022/05/21 03:05:35;;;;;;;6.83;4.07;;;14.60;99.90;;;;;;4932449;29;20191;-87
2022/05/21 03:10:20;;;;;;;4.57;3.70;;;14.40;99.90;;;;;;4933117;29;21567;-87
2022/05/21 03:10:47;;;;;;;6.50;4.15;;;14.40;99.90;;;;;;4932453;29;20226;-85
2022/05/21 03:13:12;;;;;;;6.40;4.20;;;14.40;99.90;;;;;;4934284;29;20642;-85
2022/05/21 03:15:39;;;;;;;8.23;5.23;;;14.20;99.90;;;;;;4932918;29;20181;-83
2022/05/21 03:18:07;;;;;;;5.90;4.95;;;14.30;99.90;;;;;;4933564;29;20217;-84
2022/05/21 03:20:33;;;;;;;13.02;5.65;;;14.20;99.90;;;;;;4933319;29;20181;-84
2022/05/21 03:22:59;;;;;;;6.72;5.55;;;12.10;99.90;;;;;;4931693;29;20936;-83
2022/05/21 03:25:25;;;;;;;8.30;6.70;;;14.10;99.90;;;;;;4930229;29;20189;-83
2022/05/21 03:27:51;;;;;;;8.97;7.43;;;14.10;99.90;;;;;;4932403;29;20252;-87
2022/05/21 03:30:19;;;;;;;9.50;6.70;;;14.10;99.90;;;;;;4933733;29;20220;-87
2022/05/21 03:32:46;;;;;;;5.45;4.95;;;;;;;;;;4936155;29;20225;-84
2022/05/21 03:35:13;;;;;;;8.50;6.03;;;14.40;99.90;;;;;;4932770;29;20292;-85
2022/05/21 03:37:39;;;;;;;10.73;5.85;;;14.30;99.90;;;;;;4931416;29;20244;-85
2022/05/21 03:40:08;;;;;;;12.52;5.80;;;14.30;99.90;;;;;;4928548;29;20296;-85
2022/05/21 03:42:34;;;;;;;6.40;4.90;;;14.20;99.90;;;;;;4933703;29;20659;-86
2022/05/21 03:45:00;;;;;;;6.75;5.90;;;14.10;99.90;;;;;;4934077;29;20723;-84
2022/05/21 03:47:26;;;;;;;5.72;4.95;;;14.10;99.90;;;;;;4934402;29;20272;-84
2022/05/21 03:49:52;;;;;;;7.07;5.27;;;14.00;99.90;;;;;;4930395;29;20672;-84
2022/05/21 03:52:17;;;;;;;5.20;4.33;;;13.90;99.90;;;;;;4937613;29;20185;-84
2022/05/21 03:54:43;;;;;;;5.17;4.20;;;;;;;;;;4936775;29;20173;-84
2022/05/21 03:57:10;;;;;;;7.00;4.93;;;13.90;99.90;;;;;;4935794;29;20563;-84
2022/05/21 03:59:36;;;;;;;4.95;4.15;;;11.50;99.90;;;;;;4930403;29;20492;-84
2022/05/21 04:02:02;;;;;;;7.63;5.10;;;13.90;99.90;;;;;;4935074;29;20227;-83
2022/05/21 04:04:28;;;;;;;6.60;5.27;;;;;;;;;;4930094;29;20288;-84
2022/05/21 04:06:54;;;;;;;6.22;4.25;;;13.90;99.90;;;;;;4934307;29;20208;-83
2022/05/21 04:09:20;;;;;;;5.25;4.70;;;13.80;99.90;;;;;;4928503;29;20396;-83
2022/05/21 04:11:45;;;;;;;6.80;4.53;;;13.70;99.90;;;;;;4927723;29;20244;-81
2022/05/21 04:14:14;;;;;;;9.53;5.07;;;13.80;99.90;;;;;;4930954;29;20224;-80
2022/05/21 04:16:41;;;;;;;6.30;4.65;;;13.90;99.90;;;;;;4935340;29;20586;-80
2022/05/21 04:19:06;;;;;;;9.75;7.70;;;13.90;99.90;;;;;;4931591;29;20204;-80
2022/05/21 04:21:32;;;;;;;8.43;5.20;;;13.90;99.90;;;;;;4935492;29;20264;-82
2022/05/21 04:23:57;;;;;;;11.70;5.33;;;14.00;99.90;;;;;;4931085;29;20189;-81
2022/05/21 04:26:23;;;;;;;14.00;5.10;;;14.80;99.90;;;;;;4926818;29;21151;-81
2022/05/21 04:28:48;;;;;;;5.30;4.30;;;16.10;99.90;;;;;;4934355;29;20356;-84
2022/05/21 04:31:14;;;;;;;5.40;4.43;;;16.20;99.90;;;;;;4934668;29;20220;-85
2022/05/21 04:33:40;;;;;;;6.43;4.93;;;;;;;;;;4937199;29;20209;-87
2022/05/21 04:36:18;;;;;;;8.00;4.80;;;;;;;;;;4934163;29;20182;-84
2022/05/21 04:38:47;;;;;;;6.67;5.60;;;17.30;99.90;;;;;;4935763;29;20460;-85
2022/05/21 04:41:17;;;;;;;6.93;4.60;;;18.00;99.90;;;;;;4937253;29;20447;-86
2022/05/21 04:43:42;;;;;;;4.53;3.87;;;17.90;99.90;;;;;;4935288;29;20472;-85
2022/05/21 04:46:09;;;;;;;5.80;4.07;;;17.60;99.90;;;;;;4935423;29;20978;-84
2022/05/21 04:48:35;;;;;;;10.07;4.60;;;18.20;99.90;;;;;;4928486;29;20216;-85
2022/05/21 04:51:02;;;;;;;5.30;4.20;;;18.30;99.90;;;;;;4933007;29;20460;-85
2022/05/21 04:53:29;;;;;;;4.13;3.70;;;19.50;99.90;;;;;;4931354;29;20213;-85
2022/05/21 04:55:55;;;;;;;3.90;3.50;;;20.30;99.90;;;;;;4934321;29;20444;-85
2022/05/21 04:58:21;;;;;;;4.10;3.57;;;20.20;99.90;;;;;;4923998;29;20464;-80
2022/05/21 05:00:47;;;;;;;4.70;3.37;;;19.70;99.90;;;;;;4941675;28;20448;-79
2022/05/21 05:03:17;;;;;;;3.70;3.10;;;19.30;99.90;;;;;;4936182;29;20593;-81
2022/05/21 05:05:44;;;;;;;6.93;3.50;;;19.30;99.90;;;;;;4935505;29;20465;-80
2022/05/21 05:08:11;;;;;;;5.17;4.00;;;19.60;99.90;;;;;;4932547;29;20471;-78
2022/05/21 05:10:37;;;;;;;4.67;2.73;;;19.40;99.90;;;;;;4930175;29;20682;-82
2022/05/21 05:13:04;;;;;;;4.07;3.40;;;20.20;99.90;;;;;;4933164;29;20460;-79
2022/05/21 05:15:30;;;;;;;3.90;3.50;;;20.50;99.90;;;;;;4932120;29;20548;-79
2022/05/21 05:18:04;;;;;;;4.17;3.20;;;19.70;99.90;;;;;;4930914;29;20440;-79
2022/05/21 05:20:30;;;;;;;5.27;3.50;;;19.80;99.90;;;;;;4933824;29;20189;-81
2022/05/21 05:22:57;;;;;;;7.10;2.87;;;22.00;99.90;;;;;;4924392;29;20564;-81
2022/05/21 05:25:23;;;;;;;3.40;3.10;;;22.50;99.90;;;;;;4933052;29;20299;-80
2022/05/21 05:27:50;;;;;;;3.10;2.60;;;24.50;99.90;;;;;;4932888;29;20947;-83
2022/05/21 05:30:18;;;;;;;3.40;2.97;;;24.50;99.90;;;;;;4928429;29;20264;-81
2022/05/21 05:32:44;;;;;;;5.10;4.30;;;23.80;99.90;;;;;;4942165;29;20432;-81
2022/05/21 05:35:11;;;;;;;3.60;3.30;;;21.50;99.90;;;;;;4933316;29;20516;-82
2022/05/21 05:37:37;;;;;;;3.13;2.83;;;21.40;99.90;;;;;;4931674;29;21241;-81
2022/05/21 05:40:04;;;;;;;3.50;2.30;;;20.80;99.90;;;;;;4935627;29;20489;-83
2022/05/21 05:42:30;;;;;;;3.00;2.70;;;;;;;;;;4933281;29;20192;-82
2022/05/21 05:44:56;;;;;;;5.13;3.17;;;21.40;99.90;;;;;;4929422;29;20441;-83
2022/05/21 05:47:22;;;;;;;5.50;3.20;;;;;;;;;;4942220;28;20432;-82
2022/05/21 05:49:47;;;;;;;5.10;2.80;;;21.70;99.90;;;;;;4937559;28;20532;-84
2022/05/21 05:52:14;;;;;;;3.27;2.27;;;21.60;99.90;;;;;;4926476;29;20579;-84
2022/05/21 05:54:40;;;;;;;3.70;2.80;;;;;;;;;;4925729;29;20191;-81
2022/05/21 05:57:12;;;;;;;2.70;2.30;;;21.20;99.90;;;;;;4924919;29;20441;-83
2022/05/21 05:59:51;;;;;;;8.00;3.00;;;22.70;99.90;;;;;;4923306;29;20961;-84
2022/05/21 06:05:18;;;;;;;3.93;2.83;;;22.70;99.90;;;;;;4933822;29;20431;-84
2022/05/21 06:08:09;;;;;;;4.00;2.90;;;22.80;99.90;;;;;;4931360;29;20552;-79
2022/05/21 06:10:37;;;;;;;3.80;2.63;;;22.80;99.10;;;;;;4925510;29;20469;-81
2022/05/21 06:13:04;;;;;;;3.30;2.33;;;23.70;97.70;;;;;;4925645;29;20969;-81
2022/05/21 06:15:30;;;;;;;6.87;2.70;;;23.30;95.10;;;;;;4934119;29;20535;-82
2022/05/21 06:17:55;;;;;;;2.93;2.17;;;22.90;97.50;;;;;;4933678;29;22643;-83
2022/05/21 06:20:24;;;;;;;2.20;2.00;;;22.60;97.60;;;;;;4951951;28;20525;-85
2022/05/21 06:22:50;;;;;;;2.80;1.37;;;21.10;97.20;;;;;;4937648;29;20196;-83
2022/05/21 06:25:19;;;;;;;4.17;2.40;;;20.40;99.90;;;;;;4939745;29;20441;-81
2022/05/21 06:27:47;;;;;;;5.50;2.80;;;20.40;99.90;;;;;;4937654;29;20468;-83
2022/05/21 06:30:13;;;;;;;7.33;2.43;;;20.60;99.90;;;;;;4936678;29;20882;-85
2022/05/21 06:32:39;;;;;;;2.60;1.73;;;22.30;99.80;;;;;;4940362;29;20436;-85
2022/05/21 06:35:06;;;;;;;4.93;1.70;;;22.40;97.00;;;;;;4942459;29;20425;-85
2022/05/21 06:37:32;;;;;;;3.77;1.93;;;24.60;94.90;;;;;;4936747;29;20973;-86
2022/05/21 06:39:58;;;;;;;2.93;2.00;;;24.50;95.00;;;;;;4933411;29;20457;-85
2022/05/21 06:42:24;;;;;;;4.83;2.00;;;;;;;;;;4933606;29;20511;-84
2022/05/21 06:44:51;;;;;;;2.60;1.80;;;25.20;93.70;;;;;;4935474;29;20279;-83
2022/05/21 06:47:17;;;;;;;3.10;1.30;;;25.20;94.00;;;;;;4937954;29;20488;-85
2022/05/21 06:49:43;;;;;;;2.50;1.70;;;;;;;;;;4932465;29;20503;-85
2022/05/21 06:52:09;;;;;;;3.10;1.73;;;22.00;94.30;;;;;;4928981;29;20496;-86
2022/05/21 06:54:35;;;;;;;2.33;1.70;;;21.90;94.60;;;;;;4931835;29;20468;-85
2022/05/21 06:57:01;;;;;;;1.83;1.60;;;;;;;;;;4930460;29;20448;-86
2022/05/21 06:59:28;;;;;;;4.20;1.27;;;;;;;;;;4921323;29;20200;-87
2022/05/21 07:01:54;;;;;;;3.37;2.30;;;21.20;96.50;;;;;;4931178;29;20441;-86
2022/05/21 07:07:32;;;;;;;2.30;1.70;;;21.80;97.20;;;;;;4923163;29;20520;-86
2022/05/21 07:09:50;;;;;;;2.40;1.20;;;22.50;93.90;;;;;;4933852;29;20491;-85
2022/05/21 07:12:16;;;;;;;3.70;1.43;;;;;;;;;;4927512;29;20494;-89
2022/05/21 07:14:42;;;;;;;4.00;1.30;;;;;;;;;;4929701;29;20193;-85
2022/05/21 07:17:08;;;;;;;1.90;1.60;;;;;;;;;;4934774;29;20441;-84
2022/05/21 07:19:35;;;;;;;6.07;1.30;;;22.00;93.70;;;;;;4929275;29;20954;-86
2022/05/21 07:22:04;;;;;;;3.03;1.47;;;22.30;91.40;;;;;;4933733;29;20456;-83
2022/05/21 07:24:30;;;;;;;3.50;1.40;;;;;;;;;;4934619;29;20468;-85
2022/05/21 07:26:56;;;;;;;4.77;1.33;;;23.80;92.00;;;;;;4929735;29;20422;-90
2022/05/21 07:29:21;;;;;;;3.20;1.30;;;24.00;91.00;;;;;;4945175;29;20465;-86
2022/05/21 07:31:47;;;;;;;5.70;1.80;;;24.20;91.90;;;;;;4930308;29;20188;-88
2022/05/21 07:34:13;;;;;;;5.47;1.50;;;;;;;;;;4928743;29;20177;-87
2022/05/21 07:36:39;;;;;;;2.13;1.30;;;;;;;;;;4942550;28;20244;-89
2022/05/21 07:39:05;;;;;;;2.67;1.63;;;;;;;;;;4912496;29;20441;-89
2022/05/21 07:41:31;;;;;;;2.87;1.50;;;;;;;;;;4942277;29;20436;-89
2022/05/21 07:43:57;;;;;;;2.80;1.60;;;;;;;;;;4950023;29;20991;-90
2022/05/21 07:46:23;;;;;;;4.70;2.23;;;;;;;;;;4936879;29;20433;-87
2022/05/21 07:48:49;;;;;;;7.13;1.60;;;;;;;;;;4929809;29;20455;-86
2022/05/21 07:51:15;;;;;;;3.57;1.70;;;;;;;;;;4930335;29;20882;-85
2022/05/21 07:53:42;;;;;;;2.43;1.60;;;;;;;;;;4930124;29;20423;-88
2022/05/21 07:56:10;;;;;;;7.03;1.50;;;;;;;;;;4929740;29;20439;-87
2022/05/21 07:58:37;;;;;;;3.67;1.57;;;26.90;80.60;;;;;;4925094;29;20554;-84
2022/05/21 08:01:03;;;;;;;2.60;1.67;;;27.00;81.40;;;;;;4937846;28;20453;-83
2022/05/21 08:03:29;;;;;;;2.60;1.60;;;25.00;83.00;;;;;;4937820;28;20442;-83
2022/05/21 08:05:55;;;;;;;4.53;1.77;;;20.10;94.30;;;;;;4928044;29;20232;-83
2022/05/21 08:08:22;;;;;;;3.37;1.80;;;20.90;97.00;;;;;;4930257;29;20288;-84
2022/05/21 08:10:48;;;;;;;2.00;1.80;;;;;;;;;;4938819;28;20472;-84
2022/05/21 08:13:16;;;;;;;3.93;2.30;;;20.70;96.00;;;;;;4929329;29;20440;-83
2022/05/21 08:15:43;;;;;;;2.60;1.20;;;21.40;98.10;;;;;;4929025;29;20433;-82
2022/05/21 08:18:08;;;;;;;1.60;1.50;;;22.90;96.40;;;;;;4936831;29;20476;-82
2022/05/21 08:20:36;;;;;;;4.50;1.53;;;22.50;91.30;;;;;;4929375;29;20472;-82
2022/05/21 08:28:34;;;;;;;3.97;1.67;;;20.00;99.00;;;;;;4917882;29;20503;-84
2022/05/21 08:31:01;;;;;;;4.03;2.10;;;22.10;98.40;;;;;;4927023;29;20464;-88
2022/05/21 08:33:27;;;;;;;3.63;1.70;;;;;;;;;;4931480;29;20497;-82
2022/05/21 08:35:53;;;;;;;5.43;2.20;;;21.10;99.30;;;;;;4929194;29;21460;-83
2022/05/21 08:38:19;;;;;;;3.77;2.47;;;20.90;96.20;;;;;;4923045;29;20491;-84
2022/05/21 08:40:54;;;;;;;4.20;1.97;;;19.70;99.60;;;;;;4927447;29;20646;-82
2022/05/21 08:43:31;;;;;;;4.43;1.73;;;20.30;99.90;;;;;;4923893;29;20570;-81
2022/05/21 08:46:18;;;;;;;4.70;1.43;;;21.10;99.90;;;;;;4939417;28;20447;-82
2022/05/21 08:49:17;;;;;;;4.83;1.40;;;21.10;98.90;;;;;;4932740;29;20480;-82
2022/05/21 08:51:50;;;;;;;2.27;1.10;;;20.80;98.60;;;;;;4907161;29;20480;-84
2022/05/21 08:54:22;;;;;;;2.83;1.17;;;21.40;97.00;;;;;;4926854;29;20433;-84
2022/05/21 08:56:50;;;;;;;2.40;1.53;;;21.20;96.60;;;;;;4933650;29;20467;-83
2022/05/21 08:59:18;;;;;;;2.70;1.90;;;20.40;99.70;;;;;;4935918;29;20464;-83
2022/05/21 09:01:44;;;;;;;3.80;1.90;;;20.30;99.90;;;;;;4936826;29;20481;-84
2022/05/21 09:04:12;;;;;;;2.00;1.77;;;20.60;99.90;;;;;;4936671;29;20468;-83
2022/05/21 09:07:01;;;;;;;2.40;1.63;;;20.50;99.90;;;;;;4946032;28;20445;-84
2022/05/21 09:09:42;;;;;;;2.13;1.83;;;21.90;98.00;;;;;;4935161;29;20445;-82
2022/05/21 09:12:22;;;;;;;5.03;2.00;;;20.20;98.50;;;;;;4938441;29;20543;-83
2022/05/21 09:15:00;;;;;;;2.80;1.80;;;19.60;99.60;;;;;;4936894;29;21029;-83
2022/05/21 09:17:26;;;;;;;2.60;1.77;;;20.20;99.90;;;;;;4939524;29;20464;-85
2022/05/21 09:19:57;;;;;;;7.10;1.67;;;20.10;99.60;;;;;;4939684;29;20457;-84
2022/05/21 09:22:23;;;;;;;4.23;2.20;;;19.90;99.90;;;;;;4945381;29;20978;-83
2022/05/21 09:24:51;;;;;;;4.13;2.10;;;19.50;99.90;;;;;;4943730;29;20489;-84
2022/05/21 09:27:34;;;;;;;4.10;2.23;;;20.30;99.90;;;;;;4941393;29;20413;-82
2022/05/21 09:30:20;;;;;;;2.00;1.80;;;20.80;99.80;;;;;;4948946;29;20445;-84
2022/05/21 09:32:52;;;;;;;8.30;2.53;;;23.10;99.20;;;;;;4958689;29;20423;-85
2022/05/21 09:35:29;;;;;;;11.67;2.73;;;23.20;95.80;;;;;;4958584;28;20441;-83
2022/05/21 09:37:55;;;;;;;2.23;1.97;;;20.50;96.90;;;;;;4941308;29;20483;-84
2022/05/21 09:40:36;;;;;;;4.73;2.00;;;20.40;97.30;;;;;;4942757;29;20848;-83
2022/05/21 09:46:26;;;;;;;4.43;2.20;;;19.80;99.90;;;;;;4946275;29;20480;-84
2022/05/21 09:48:54;;;;;;;3.73;1.67;;;21.60;99.90;;;;;;4943688;29;20531;-84
2022/05/21 09:51:40;;;;;;;1.50;1.37;;;22.20;96.40;;;;;;4941587;29;20463;-83
2022/05/21 09:54:20;;;;;;;7.80;2.60;;;22.60;95.90;;;;;;4943219;29;20970;-84
2022/05/21 09:56:54;;;;;;;2.43;2.20;;;22.70;96.60;;;;;;4944429;29;20459;-84
2022/05/21 09:59:23;;;;;;;4.57;2.63;;;21.00;97.20;;;;;;4939887;29;20452;-84
2022/05/21 10:01:56;;;;;;;5.30;2.67;;;21.80;98.30;;;;;;4942910;29;20433;-84
2022/05/21 10:04:43;;;;;;;3.30;2.10;;;21.90;98.70;;;;;;4941946;29;20447;-82
2022/05/21 10:07:09;;;;;;;4.30;2.83;;;;;;;;;;4943114;29;20437;-83
2022/05/21 10:12:36;;;;;;;2.50;1.53;;;22.10;97.10;;;;;;4944938;29;20425;-83
2022/05/21 10:15:24;;;;;;;1.70;1.40;;;21.20;95.50;;;;;;4942737;29;20433;-83
2022/05/21 10:18:12;;;;;;;3.27;1.60;;;20.90;99.10;;;;;;4940830;29;21217;-84
2022/05/21 10:20:43;;;;;;;3.17;1.40;;;21.30;99.30;;;;;;4941079;29;20504;-85
2022/05/21 10:23:26;;;;;;;1.77;1.63;;;20.40;99.90;;;;;;4941037;28;20448;-84
2022/05/21 10:26:07;;;;;;;5.33;1.40;;;21.10;98.00;;;;;;4943280;29;20417;-83
2022/05/21 10:28:51;;;;;;;5.07;1.10;;;21.40;99.30;;;;;;4958076;29;20463;-83
2022/05/21 10:31:39;;;;;;;5.83;1.80;;;21.20;97.50;;;;;;4957916;29;21014;-83
2022/05/21 10:34:28;;;;;;;4.83;1.67;;;21.00;99.40;;;;;;4962076;28;20417;-81
2022/05/21 10:37:14;;;;;;;2.13;1.60;;;20.70;99.90;;;;;;4948360;28;20477;-83
2022/05/21 10:40:08;;;;;;;2.80;2.17;;;20.90;99.90;;;;;;4951891;29;20468;-81
2022/05/21 10:42:56;;;;;;;5.23;2.63;;;20.50;99.90;;;;;;4943676;29;20448;-82
2022/05/21 10:45:40;;;;;;;4.17;1.87;;;20.90;99.90;;;;;;4943733;29;20429;-80
2022/05/21 10:48:20;;;;;;;3.00;1.60;;;20.50;99.90;;;;;;4942084;29;20440;-81
2022/05/21 10:51:08;;;;;;;2.87;1.93;;;20.40;99.90;;;;;;4945668;29;20471;-81
2022/05/21 10:54:28;;;;;;;9.30;2.17;;;20.60;99.30;;;;;;4960632;29;20437;-83
2022/05/21 10:57:27;;;;;;;4.27;1.47;;;21.00;99.90;;;;;;4942433;23;20495;-84
2022/05/21 11:00:06;;;;;;;4.00;1.13;;;21.20;99.90;;;;;;4952298;28;20460;-83
2022/05/21 11:02:43;;;;;;;8.53;1.50;;;20.70;98.90;;;;;;4929567;29;20477;-82
2022/05/21 11:05:45;;;;;;;7.17;1.90;;;20.80;99.90;;;;;;4926879;29;20819;-83
2022/05/21 11:08:22;;;;;;;1.87;1.10;;;21.20;97.90;;;;;;4936614;29;20502;-84
2022/05/21 11:11:27;;;;;;;3.33;1.50;;;21.10;98.30;;;;;;4916855;29;21043;-83
2022/05/21 11:14:14;;;;;;;3.57;1.00;;;20.50;98.60;;;;;;4914903;29;20492;-82
2022/05/21 11:17:09;;;;;;;3.50;1.87;;;20.50;99.10;;;;;;4923434;29;20460;-82
2022/05/21 11:19:35;;;;;;;2.30;1.43;;;20.50;99.50;;;;;;4903835;29;20433;-82
2022/05/21 11:22:15;;;;;;;5.33;1.57;;;20.30;99.60;;;;;;4926433;29;20464;-83
2022/05/21 11:25:02;;;;;;;8.63;1.27;;;20.40;99.90;;;;;;4926263;29;20194;-83
2022/05/21 11:27:36;;;;;;;11.00;2.10;;;20.60;98.00;;;;;;4942906;29;20424;-82
2022/05/21 11:30:07;;;;;;;4.33;1.27;;;20.60;99.00;;;;;;4934283;29;20452;-86
2022/05/21 11:38:27;;;;;;;7.70;1.43;;;20.80;98.00;;;;;;4928016;29;20855;-82
2022/05/21 11:44:55;;;;;;;2.60;1.70;;;21.10;99.00;;;;;;4941970;29;20594;-82
2022/05/21 11:46:44;;;;;;;10.50;2.00;;;;;;;;;;4927108;29;20444;-83
2022/05/21 11:49:28;;;;;;;3.47;1.57;;;20.20;98.70;;;;;;4929768;29;20447;-84
2022/05/21 11:51:55;;;;;;;7.43;1.47;;;20.30;99.10;;;;;;4945489;28;20532;-84
2022/05/21 11:54:45;;;;;;;3.20;1.20;;;20.30;99.90;;;;;;4929662;29;20445;-82
2022/05/21 11:57:28;;;;;;;2.17;1.63;;;20.50;99.90;;;;;;4927738;29;20449;-84
2022/05/21 11:59:54;;;;;;;3.17;1.63;;;20.80;99.30;;;;;;4929122;29;20433;-84
2022/05/21 12:02:29;;;;;;;2.70;1.60;;;20.90;98.80;;;;;;4928100;29;20537;-82
2022/05/21 12:05:00;;;;;;;4.10;1.63;;;20.90;98.80;;;;;;4926472;29;20813;-85
2022/05/21 12:07:43;;;;;;;1.60;1.30;;;21.30;99.90;;;;;;4927870;29;20437;-82
2022/05/21 12:10:24;;;;;;;9.07;1.63;;;20.60;98.00;;;;;;4941368;28;20531;-86
2022/05/21 12:13:01;;;;;;;5.60;1.30;;;20.60;99.90;;;;;;4928866;29;20451;-83
2022/05/21 12:15:57;;;;;;;2.63;1.40;;;21.00;98.00;;;;;;4934339;29;20447;-84
2022/05/21 12:18:26;;;;;;;5.40;1.43;;;21.40;99.60;;;;;;4915376;29;20437;-83
2022/05/21 12:20:52;;;;;;;3.90;1.40;;;21.70;98.90;;;;;;4930001;29;20461;-83
2022/05/21 12:23:31;;;;;;;6.53;1.67;;;21.70;97.80;;;;;;4923409;29;20436;-82
2022/05/21 12:25:59;;;;;;;3.30;1.47;;;21.60;98.50;;;;;;4944669;28;21075;-82
2022/05/21 12:28:56;;;;;;;2.67;1.33;;;21.40;98.90;;;;;;4936425;29;20507;-82
2022/05/21 12:31:23;;;;;;;5.27;1.77;;;21.80;98.80;;;;;;4945621;28;20569;-82
2022/05/21 12:34:11;;;;;;;3.10;1.37;;;22.00;97.90;;;;;;4931898;29;20428;-84
2022/05/21 12:36:45;;;;;;;3.13;1.17;;;21.70;97.40;;;;;;4930528;29;20440;-82
2022/05/21 12:39:15;;;;;;;2.20;1.00;;;21.40;97.30;;;;;;4930009;29;20444;-81
2022/05/21 12:41:45;;;;;;;2.40;1.27;;;21.40;97.20;;;;;;4929569;29;20456;-84
2022/05/21 12:44:15;;;;;;;11.53;2.23;;;21.40;96.60;;;;;;4930563;29;20492;-83
2022/05/21 12:46:48;;;;;;;1.00;0.73;;;20.70;96.30;;;;;;4932404;29;20575;-82
2022/05/21 12:49:17;;;;;;;2.50;1.20;;;20.90;97.90;;;;;;4916689;29;20429;-82
2022/05/21 12:51:49;;;;;;;5.67;1.67;;;21.40;97.80;;;;;;4922975;29;20464;-84
2022/05/21 12:54:24;;;;;;;2.80;1.23;;;21.40;98.00;;;;;;4932475;29;20433;-83
2022/05/21 12:56:50;;;;;;;14.77;1.77;;;;;;;;;;4927435;29;20446;-83
2022/05/21 12:59:33;;;;;;;1.60;1.40;;;20.80;98.00;;;;;;4920659;29;20440;-81
2022/05/21 13:02:21;;;;;;;1.40;1.13;;;21.10;98.80;;;;;;4941255;29;20538;-83
2022/05/21 13:04:49;;;;;;;3.43;1.87;;;21.10;96.90;;;;;;4929850;29;20449;-86
2022/05/21 13:07:38;;;;;;;5.80;1.30;;;21.00;98.60;;;;;;4924926;29;20441;-84
2022/05/21 13:10:19;;;;;;;4.93;1.37;;;21.10;97.60;;;;;;4940900;28;20440;-83
2022/05/21 13:12:49;;;;;;;3.10;1.27;;;21.10;97.70;;;;;;4933418;29;20984;-86
2022/05/21 13:15:31;;;;;;;3.03;1.20;;;21.20;97.80;;;;;;4924175;29;20433;-83
2022/05/21 13:18:12;;;;;;;3.70;1.27;;;21.30;96.10;;;;;;4925460;29;20445;-84
2022/05/21 13:21:06;;;;;;;3.17;1.00;;;21.50;97.30;;;;;;4908206;29;20481;-85
2022/05/21 13:23:47;;;;;;;3.47;1.53;;;21.50;97.00;;;;;;4918735;29;20441;-84
2022/05/21 13:26:22;;;;;;;2.57;1.73;;;21.60;97.60;;;;;;4925510;29;20437;-85
2022/05/21 13:28:48;;;;;;;2.47;1.40;;;21.40;96.30;;;;;;4925345;29;20865;-85
2022/05/21 13:31:22;;;;;;;2.30;1.47;;;21.70;97.50;;;;;;4921890;29;20563;-86
2022/05/21 13:33:50;;;;;;;3.67;1.60;;;22.20;96.70;;;;;;4927434;29;20507;-84
2022/05/21 13:36:21;;;;;;;4.00;1.83;;;22.50;95.30;;;;;;4924176;29;20440;-87
2022/05/21 13:38:52;;;;;;;4.77;1.40;;;22.00;95.90;;;;;;4926835;29;21418;-85
2022/05/21 13:41:33;;;;;;;3.03;1.70;;;22.00;96.50;;;;;;4942210;28;20474;-84
2022/05/21 13:44:00;;;;;;;5.80;1.50;;;22.10;95.40;;;;;;4926445;29;20562;-83
2022/05/21 13:46:30;;;;;;;2.07;1.70;;;22.40;96.60;;;;;;4922429;29;20441;-82
2022/05/21 13:48:58;;;;;;;10.77;1.37;;;22.50;96.30;;;;;;4943435;28;20445;-83